Terminal Aerodrome Forecast
Issued by NWS

Home | Current Version | Previous Version | Text Only | Print | Product List | Glossary On
Versions: 1 2 3 4 5 6 7 8 9 10 11 12 13 14
000
FTUS45 KFGZ 012100 AAA
TAFSEZ
TAF AMD
KSEZ 012114Z 0121/0218 17007KT P6SM SCT080
     FM020230 04008KT P6SM SKC
     FM021100 03010G20KT P6SM SKC=

USA.gov is the U.S. government's official web portal to all federal, state and local government web resources and services.